Time;durP1;ratioP1;P1;durP2;ratioP2;P2;SDS_P1;SDS_P2;PMS_P1;PMS_P2;Temp;Humidity;BMP_temperature;BMP_pressure;BME280_temperature;BME280_humidity;BME280_pressure;Samples;Min_cycle;Max_cycle;Signal;HPM_P1;HPM_P2
2021/03/07 00:01:02;;;;;;;2.13;1.40;;;14.50;49.60;;;;;;5091947;28;20723;-59
2021/03/07 00:03:28;;;;;;;1.98;1.60;;;14.20;70.70;;;;;;5091841;28;20032;-58
2021/03/07 00:05:53;;;;;;;4.55;1.35;;;14.30;49.50;;;;;;5091667;28;20016;-58
2021/03/07 00:08:19;;;;;;;3.85;1.30;;;13.90;71.00;;;;;;5091702;28;20043;-59
2021/03/07 00:10:45;;;;;;;2.90;1.27;;;14.30;49.50;;;;;;5091879;28;20107;-59
2021/03/07 00:13:10;;;;;;;2.88;1.67;;;14.20;70.40;;;;;;5091843;28;20497;-59
2021/03/07 00:15:36;;;;;;;3.53;1.75;;;14.10;70.10;;;;;;5091652;28;20053;-58
2021/03/07 00:18:01;;;;;;;2.97;1.70;;;14.20;49.60;;;;;;5091599;28;20143;-59
2021/03/07 00:20:27;;;;;;;1.70;1.60;;;14.20;70.50;;;;;;5091787;28;20024;-58
2021/03/07 00:22:53;;;;;;;2.33;1.60;;;14.20;70.40;;;;;;5092465;27;20096;-59
2021/03/07 00:25:19;;;;;;;2.75;1.70;;;14.20;70.40;;;;;;5091513;28;20024;-58
2021/03/07 00:27:45;;;;;;;2.30;1.52;;;14.20;49.60;;;;;;5091812;28;20016;-58
2021/03/07 00:30:14;;;;;;;2.53;1.33;;;14.20;49.70;;;;;;5094264;28;20154;-59
2021/03/07 00:32:41;;;;;;;3.78;1.92;;;14.10;49.70;;;;;;5095504;28;20488;-58
2021/03/07 00:35:08;;;;;;;2.92;1.67;;;14.20;71.00;;;;;;5095465;28;20028;-59
2021/03/07 00:37:34;;;;;;;2.25;1.40;;;14.10;49.70;;;;;;5095282;28;20474;-59
2021/03/07 00:40:00;;;;;;;2.28;1.88;;;14.10;49.80;;;;;;5095255;28;20024;-59
2021/03/07 00:42:26;;;;;;;2.63;1.80;;;14.10;49.80;;;;;;5095692;28;20024;-60
2021/03/07 00:44:51;;;;;;;1.88;1.50;;;14.10;70.60;;;;;;5095283;28;20020;-58
2021/03/07 00:47:23;;;;;;;1.50;1.27;;;14.10;49.90;;;;;;5095559;28;20462;-60
2021/03/07 00:49:49;;;;;;;2.30;1.40;;;14.00;49.90;;;;;;5095190;28;20498;-58
2021/03/07 00:52:14;;;;;;;2.90;1.40;;;14.00;49.90;;;;;;5095550;28;20062;-59
2021/03/07 00:54:40;;;;;;;2.42;1.58;;;14.00;49.90;;;;;;5095405;28;20488;-58
2021/03/07 00:57:05;;;;;;;1.60;1.20;;;14.00;49.90;;;;;;5095310;28;20370;-58
2021/03/07 00:59:31;;;;;;;2.85;1.80;;;14.00;50.00;;;;;;5095340;28;20024;-57
2021/03/07 01:01:57;;;;;;;2.58;1.65;;;14.00;50.00;;;;;;5095018;28;20120;-58
2021/03/07 01:04:22;;;;;;;1.92;1.33;;;14.00;50.00;;;;;;5095026;28;20028;-59
2021/03/07 01:06:48;;;;;;;2.03;1.48;;;14.00;50.10;;;;;;5095004;28;20028;-58
2021/03/07 01:09:14;;;;;;;1.77;1.08;;;13.90;50.00;;;;;;5076720;28;20386;-57
2021/03/07 01:11:39;;;;;;;2.63;1.45;;;13.90;50.00;;;;;;5095009;28;20020;-58
2021/03/07 01:14:06;;;;;;;1.88;1.50;;;13.90;50.10;;;;;;5094676;28;20032;-59
2021/03/07 01:16:33;;;;;;;1.95;1.30;;;13.90;50.10;;;;;;5094660;28;20420;-59
2021/03/07 01:18:58;;;;;;;2.15;1.20;;;13.90;50.10;;;;;;5076444;28;20020;-58
2021/03/07 01:21:24;;;;;;;2.83;1.60;;;13.90;50.20;;;;;;5094756;28;20032;-59
2021/03/07 01:23:50;;;;;;;2.97;1.65;;;13.90;50.80;;;;;;5094961;27;20554;-58
2021/03/07 01:26:15;;;;;;;2.33;1.25;;;13.90;50.20;;;;;;5094473;28;20024;-59
2021/03/07 01:28:41;;;;;;;3.25;1.52;;;13.80;50.20;;;;;;5094403;28;20019;-59
2021/03/07 01:31:07;;;;;;;2.00;1.40;;;13.80;50.20;;;;;;5094371;28;20474;-58
2021/03/07 01:33:32;;;;;;;2.30;1.25;;;13.80;72.00;;;;;;5094216;28;20036;-59
2021/03/07 01:36:04;;;;;;;2.42;1.15;;;13.70;56.40;;;;;;5094207;28;20105;-59
2021/03/07 01:38:30;;;;;;;1.65;1.33;;;13.70;50.30;;;;;;5094192;28;20470;-59
2021/03/07 01:40:57;;;;;;;1.67;1.10;;;13.60;50.30;;;;;;5093942;28;20031;-58
2021/03/07 01:43:23;;;;;;;3.08;1.58;;;13.70;71.00;;;;;;5094165;28;20060;-58
2021/03/07 01:45:50;;;;;;;2.22;1.30;;;13.70;71.10;;;;;;5094392;28;20097;-58
2021/03/07 01:48:17;;;;;;;3.15;1.60;;;13.50;50.30;;;;;;5094012;28;20028;-59
2021/03/07 01:50:45;;;;;;;2.40;1.35;;;13.60;50.30;;;;;;5093922;28;20035;-59
2021/03/07 01:53:11;;;;;;;3.95;1.60;;;13.70;50.40;;;;;;5094176;28;20042;-58
2021/03/07 01:55:38;;;;;;;3.00;1.55;;;14.00;50.50;;;;;;5094056;28;20012;-59
2021/03/07 01:58:15;;;;;;;1.98;1.30;;;13.90;71.30;;;;;;5094085;28;20020;-58
2021/03/07 02:00:41;;;;;;;2.88;1.38;;;13.80;71.20;;;;;;5094029;28;20028;-58
2021/03/07 02:03:07;;;;;;;1.58;1.30;;;13.70;50.50;;;;;;5093842;28;20024;-59
2021/03/07 02:05:33;;;;;;;2.45;1.20;;;13.70;50.50;;;;;;5093779;28;20041;-58
2021/03/07 02:08:00;;;;;;;3.10;1.63;;;13.70;50.50;;;;;;5094024;28;20416;-59
2021/03/07 02:10:29;;;;;;;2.60;1.30;;;13.60;50.50;;;;;;5093967;28;20031;-59
2021/03/07 02:13:00;;;;;;;1.52;1.17;;;13.50;50.50;;;;;;5094131;28;20092;-58
2021/03/07 02:15:29;;;;;;;2.08;1.73;;;13.60;71.10;;;;;;5093668;28;20344;-58
2021/03/07 02:17:55;;;;;;;2.10;1.30;;;13.50;50.50;;;;;;5093568;28;20070;-59
2021/03/07 02:20:24;;;;;;;2.10;1.20;;;13.60;50.60;;;;;;5093684;28;20032;-59
2021/03/07 02:23:08;;;;;;;1.73;1.20;;;13.50;50.60;;;;;;5094129;28;20044;-59
2021/03/07 02:25:34;;;;;;;4.13;1.48;;;13.60;50.60;;;;;;5093565;28;20047;-59
2021/03/07 02:28:00;;;;;;;3.28;1.30;;;13.60;50.70;;;;;;5093267;28;20530;-59
2021/03/07 02:30:28;;;;;;;2.88;1.60;;;13.90;50.90;;;;;;5093459;28;20016;-58
2021/03/07 02:33:19;;;;;;;2.60;1.23;;;13.50;50.60;;;;;;5093200;28;20486;-59
2021/03/07 02:35:51;;;;;;;3.53;1.50;;;13.50;50.60;;;;;;5093277;28;20024;-59
2021/03/07 02:38:19;;;;;;;1.73;1.15;;;13.50;50.60;;;;;;5093230;28;20031;-59
2021/03/07 02:40:49;;;;;;;2.95;1.50;;;13.50;71.30;;;;;;5093091;28;20122;-59
2021/03/07 02:43:16;;;;;;;3.15;1.40;;;13.40;50.70;;;;;;5074864;28;20607;-59
2021/03/07 02:45:45;;;;;;;1.98;1.50;;;13.60;71.60;;;;;;5093383;28;20024;-58
2021/03/07 02:48:13;;;;;;;2.83;1.60;;;13.50;50.70;;;;;;5093061;28;20090;-59
2021/03/07 02:50:40;;;;;;;4.25;1.83;;;13.40;50.70;;;;;;5092896;28;20366;-59
2021/03/07 02:53:13;;;;;;;1.75;1.40;;;13.40;50.70;;;;;;5092097;28;20115;-59
2021/03/07 02:55:41;;;;;;;3.47;1.23;;;13.40;50.80;;;;;;5074660;28;20032;-60
2021/03/07 02:58:10;;;;;;;3.75;1.85;;;13.40;50.20;;;;;;5093090;28;20378;-59
2021/03/07 03:00:37;;;;;;;4.80;1.42;;;13.50;71.50;;;;;;5092794;28;20035;-59
2021/03/07 03:03:09;;;;;;;2.08;1.50;;;13.40;50.80;;;;;;5092819;28;20115;-58
2021/03/07 03:05:38;;;;;;;2.22;1.42;;;13.40;50.80;;;;;;5092720;28;20099;-59
2021/03/07 03:08:04;;;;;;;2.15;1.30;;;13.40;50.80;;;;;;5092794;28;20445;-59
2021/03/07 03:10:31;;;;;;;1.88;1.30;;;13.40;50.80;;;;;;5092584;28;20023;-58
2021/03/07 03:12:59;;;;;;;2.35;1.50;;;13.10;50.70;;;;;;5092508;28;20469;-58
2021/03/07 03:15:26;;;;;;;2.05;1.40;;;13.30;50.80;;;;;;5092826;28;20024;-60
2021/03/07 03:17:53;;;;;;;2.47;1.55;;;13.20;71.80;;;;;;5092773;28;20069;-58
2021/03/07 03:20:20;;;;;;;1.65;1.55;;;13.30;50.80;;;;;;5092191;28;20020;-59
2021/03/07 03:22:50;;;;;;;1.85;1.50;;;13.30;50.80;;;;;;5092950;28;20102;-60
2021/03/07 03:25:16;;;;;;;1.80;1.27;;;13.30;50.90;;;;;;5092546;28;20024;-58
2021/03/07 03:27:42;;;;;;;1.65;1.20;;;13.30;50.90;;;;;;5092424;28;20016;-59
2021/03/07 03:30:11;;;;;;;1.50;1.30;;;13.30;50.90;;;;;;5092419;28;20020;-58
2021/03/07 03:32:38;;;;;;;2.33;1.40;;;13.30;50.90;;;;;;5092173;28;20028;-58
2021/03/07 03:35:10;;;;;;;3.28;1.48;;;13.30;50.90;;;;;;5092180;28;20024;-59
2021/03/07 03:37:37;;;;;;;1.50;1.20;;;13.20;71.60;;;;;;5092036;28;20028;-58
2021/03/07 03:40:04;;;;;;;3.75;1.60;;;13.20;50.90;;;;;;5092034;28;20471;-56
2021/03/07 03:42:31;;;;;;;1.45;1.17;;;13.20;50.90;;;;;;5092001;28;20070;-58
2021/03/07 03:44:59;;;;;;;1.65;1.20;;;13.10;72.70;;;;;;5092318;28;20094;-59
2021/03/07 03:47:27;;;;;;;2.45;1.00;;;13.20;50.90;;;;;;5092222;28;20016;-58
2021/03/07 03:49:55;;;;;;;2.22;1.15;;;13.20;50.90;;;;;;5091970;28;20530;-58
2021/03/07 03:52:22;;;;;;;1.50;1.30;;;13.20;50.90;;;;;;5091873;28;20070;-58
2021/03/07 03:55:08;;;;;;;3.92;1.25;;;13.30;71.80;;;;;;5092191;28;20035;-58
2021/03/07 03:57:35;;;;;;;1.92;1.02;;;13.20;51.00;;;;;;5091731;28;20028;-58
2021/03/07 04:00:04;;;;;;;1.95;1.23;;;13.20;51.00;;;;;;5091805;28;20465;-59
2021/03/07 04:02:34;;;;;;;1.88;1.20;;;13.20;51.00;;;;;;5091621;28;20470;-58
2021/03/07 04:05:04;;;;;;;2.15;1.38;;;13.30;72.00;;;;;;5094075;28;20031;-58
2021/03/07 04:07:31;;;;;;;3.17;1.25;;;13.20;51.10;;;;;;5078881;28;20024;-58
2021/03/07 04:09:57;;;;;;;3.22;1.30;;;13.00;57.60;;;;;;5096178;28;20020;-58
2021/03/07 04:12:24;;;;;;;4.13;1.30;;;13.00;51.00;;;;;;5095910;28;20071;-59
2021/03/07 04:14:52;;;;;;;1.30;0.90;;;13.00;72.20;;;;;;5095709;28;20448;-58
2021/03/07 04:17:23;;;;;;;2.28;1.17;;;13.10;51.10;;;;;;5095820;28;20024;-58
2021/03/07 04:19:51;;;;;;;1.85;1.35;;;13.10;72.30;;;;;;5095771;28;20486;-60
2021/03/07 04:22:17;;;;;;;1.50;1.15;;;13.10;51.10;;;;;;5096247;27;20048;-58
2021/03/07 04:24:43;;;;;;;2.40;1.20;;;12.90;72.20;;;;;;5096054;28;20138;-59
2021/03/07 04:27:09;;;;;;;2.28;1.33;;;13.00;71.90;;;;;;5095680;28;20073;-59
2021/03/07 04:29:36;;;;;;;3.15;1.58;;;13.00;50.60;;;;;;5095472;28;20023;-59
2021/03/07 04:32:04;;;;;;;1.27;1.05;;;13.00;51.10;;;;;;5095529;28;20030;-58
2021/03/07 04:34:30;;;;;;;1.52;1.20;;;13.00;51.10;;;;;;5095368;28;20111;-59
2021/03/07 04:36:56;;;;;;;1.38;1.20;;;13.40;51.30;;;;;;5095732;28;20073;-58
2021/03/07 04:39:21;;;;;;;1.85;1.55;;;13.00;51.20;;;;;;5095761;28;20020;-59
2021/03/07 04:41:47;;;;;;;1.75;1.30;;;13.00;51.20;;;;;;5095489;28;20062;-60
2021/03/07 04:44:13;;;;;;;1.80;1.10;;;12.90;71.90;;;;;;5095601;28;20028;-59
2021/03/07 04:46:38;;;;;;;3.40;1.33;;;12.90;51.20;;;;;;5095433;28;20031;-58
2021/03/07 04:49:04;;;;;;;2.47;1.40;;;13.00;51.30;;;;;;5095397;28;20430;-59
2021/03/07 04:51:30;;;;;;;2.47;1.20;;;13.00;51.30;;;;;;5095248;28;20039;-58
2021/03/07 04:53:56;;;;;;;3.65;1.10;;;12.80;72.70;;;;;;5095305;28;20028;-58
2021/03/07 04:56:22;;;;;;;1.48;0.88;;;12.90;51.30;;;;;;5095242;28;20012;-58
2021/03/07 04:58:48;;;;;;;1.67;1.33;;;12.90;51.30;;;;;;5095111;28;20553;-58
2021/03/07 05:01:14;;;;;;;1.52;1.08;;;12.90;51.30;;;;;;5095053;28;20154;-59
2021/03/07 05:03:39;;;;;;;2.22;1.60;;;12.90;51.40;;;;;;5095226;28;20020;-58
2021/03/07 05:06:05;;;;;;;1.17;0.98;;;12.90;72.30;;;;;;5095163;28;20039;-58
2021/03/07 05:08:31;;;;;;;2.80;1.25;;;12.90;51.40;;;;;;5094805;28;20020;-59
2021/03/07 05:10:57;;;;;;;1.90;1.30;;;12.90;72.50;;;;;;5095051;28;20016;-59
2021/03/07 05:13:23;;;;;;;2.55;1.10;;;12.90;51.40;;;;;;5094757;28;20028;-57
2021/03/07 05:15:49;;;;;;;1.35;1.10;;;13.30;51.70;;;;;;5094246;28;20024;-58
2021/03/07 05:18:15;;;;;;;1.88;1.33;;;12.90;51.50;;;;;;5094914;28;20411;-59
2021/03/07 05:20:41;;;;;;;2.35;1.40;;;12.80;51.50;;;;;;5094523;28;20062;-58
2021/03/07 05:23:06;;;;;;;1.58;1.30;;;12.70;72.30;;;;;;5095130;27;20048;-59
2021/03/07 05:25:32;;;;;;;0.93;0.88;;;12.60;51.40;;;;;;5094808;28;20090;-58
2021/03/07 05:27:57;;;;;;;2.13;1.20;;;12.80;51.60;;;;;;5094413;28;20073;-57
2021/03/07 05:30:24;;;;;;;2.45;1.05;;;12.80;51.60;;;;;;5094690;28;20020;-58
2021/03/07 05:32:49;;;;;;;2.20;1.48;;;12.80;51.60;;;;;;5094256;28;20493;-58
2021/03/07 05:35:15;;;;;;;1.75;1.00;;;12.80;52.40;;;;;;5094553;28;20024;-59
2021/03/07 05:37:40;;;;;;;0.98;0.93;;;12.90;72.40;;;;;;5094134;28;20131;-58
2021/03/07 05:40:07;;;;;;;1.10;0.80;;;12.80;51.70;;;;;;5094248;28;20078;-58
2021/03/07 05:42:33;;;;;;;1.60;1.13;;;12.80;72.70;;;;;;5094284;28;20028;-59
2021/03/07 05:44:59;;;;;;;1.65;1.10;;;12.70;73.80;;;;;;5094414;28;20028;-58
2021/03/07 05:47:25;;;;;;;2.67;1.30;;;12.80;72.70;;;;;;5094058;28;20474;-58
2021/03/07 05:49:51;;;;;;;1.13;0.80;;;12.80;51.80;;;;;;5094276;28;20107;-57
2021/03/07 05:52:23;;;;;;;1.55;1.15;;;12.80;51.80;;;;;;5075650;28;20135;-59
2021/03/07 05:54:52;;;;;;;1.95;1.05;;;12.70;51.20;;;;;;5093998;28;20394;-57
2021/03/07 05:57:23;;;;;;;2.00;1.20;;;12.70;51.80;;;;;;5093751;28;20024;-58
2021/03/07 05:59:50;;;;;;;1.63;1.08;;;12.80;51.80;;;;;;5093794;28;20530;-58
2021/03/07 06:02:16;;;;;;;2.35;0.88;;;13.00;51.90;;;;;;5094011;28;20024;-58
2021/03/07 06:04:43;;;;;;;0.98;0.80;;;12.70;51.70;;;;;;5093957;28;20023;-58
2021/03/07 06:07:09;;;;;;;1.08;0.80;;;13.00;74.80;;;;;;5093977;28;20432;-58
2021/03/07 06:09:35;;;;;;;1.92;1.30;;;12.90;52.80;;;;;;5093569;28;20466;-58
2021/03/07 06:12:02;;;;;;;1.10;0.80;;;13.00;52.80;;;;;;5093646;28;20078;-58
2021/03/07 06:14:29;;;;;;;1.67;0.90;;;13.20;52.80;;;;;;5093506;28;20116;-58
2021/03/07 06:17:13;;;;;;;1.83;0.95;;;13.30;52.70;;;;;;5075816;28;20103;-57
2021/03/07 06:19:59;;;;;;;1.15;0.90;;;13.40;52.70;;;;;;5093726;28;20032;-58
2021/03/07 06:22:27;;;;;;;2.13;0.90;;;13.60;52.60;;;;;;5094461;27;20044;-58
2021/03/07 06:24:53;;;;;;;1.05;0.75;;;13.70;52.60;;;;;;5093661;28;20386;-58
2021/03/07 06:27:19;;;;;;;1.45;0.90;;;14.00;52.60;;;;;;5092583;28;20031;-58
2021/03/07 06:30:01;;;;;;;2.47;1.02;;;14.00;52.50;;;;;;5093387;28;20035;-58
2021/03/07 06:32:32;;;;;;;1.67;0.80;;;14.10;52.30;;;;;;5093087;28;20481;-58
2021/03/07 06:34:58;;;;;;;1.30;0.70;;;14.20;52.10;;;;;;5092908;28;20032;-57
2021/03/07 06:37:24;;;;;;;1.30;0.70;;;14.30;52.00;;;;;;5093417;28;20077;-58
2021/03/07 06:39:50;;;;;;;2.30;0.82;;;14.30;73.20;;;;;;5093143;28;20031;-57
2021/03/07 06:42:17;;;;;;;1.48;0.60;;;14.80;72.20;;;;;;5093244;28;20054;-58
2021/03/07 06:45:04;;;;;;;1.52;0.75;;;14.50;51.70;;;;;;5093025;28;20063;-57
2021/03/07 06:47:29;;;;;;;0.73;0.70;;;14.60;51.60;;;;;;5093122;28;20056;-58
2021/03/07 06:50:07;;;;;;;0.75;0.50;;;14.70;51.60;;;;;;5092954;28;20051;-58
2021/03/07 06:52:34;;;;;;;0.80;0.60;;;14.70;51.50;;;;;;5092789;28;20524;-59
2021/03/07 06:55:05;;;;;;;1.17;0.60;;;14.80;71.30;;;;;;5092869;28;20024;-58
2021/03/07 06:57:31;;;;;;;1.40;0.70;;;14.80;51.30;;;;;;5092431;28;20414;-55
2021/03/07 06:59:57;;;;;;;0.90;0.43;;;14.80;51.10;;;;;;5092765;28;20103;-55
2021/03/07 07:02:23;;;;;;;1.83;1.10;;;14.90;51.20;;;;;;5092700;28;20061;-55
2021/03/07 07:04:49;;;;;;;1.35;0.70;;;14.80;51.10;;;;;;5092691;28;20347;-58
2021/03/07 07:07:17;;;;;;;1.77;0.70;;;15.10;51.40;;;;;;5092822;28;20032;-58
2021/03/07 07:09:47;;;;;;;1.08;0.70;;;15.10;51.40;;;;;;5092890;28;20016;-57
2021/03/07 07:12:24;;;;;;;1.42;0.70;;;15.20;71.40;;;;;;5092501;28;20032;-58
2021/03/07 07:15:01;;;;;;;4.18;0.80;;;14.80;51.60;;;;;;5092449;28;20240;-57
2021/03/07 07:17:35;;;;;;;7.57;0.65;;;14.90;51.70;;;;;;5092251;28;20050;-58
2021/03/07 07:20:00;;;;;;;0.70;0.55;;;14.90;51.80;;;;;;5092398;28;20028;-58
2021/03/07 07:22:33;;;;;;;2.08;0.70;;;14.90;51.90;;;;;;5092907;28;20044;-57
2021/03/07 07:24:59;;;;;;;1.88;0.60;;;14.90;52.00;;;;;;5092116;28;20028;-58
2021/03/07 07:27:24;;;;;;;1.25;0.73;;;14.80;51.80;;;;;;5092057;28;20028;-58
2021/03/07 07:29:50;;;;;;;3.60;0.50;;;14.70;51.80;;;;;;5074175;28;20035;-58
2021/03/07 07:32:40;;;;;;;1.77;0.88;;;14.80;52.00;;;;;;5092351;28;20435;-57
2021/03/07 07:35:25;;;;;;;0.85;0.57;;;14.80;52.00;;;;;;5091985;28;20032;-57
2021/03/07 07:37:58;;;;;;;0.73;0.60;;;14.90;52.00;;;;;;5091881;28;20028;-57
2021/03/07 07:40:38;;;;;;;1.73;0.63;;;14.80;51.60;;;;;;5092279;28;20031;-57
2021/03/07 07:43:04;;;;;;;;;;;14.80;51.70;;;;;;5092832;28;20054;-58
2021/03/07 07:45:30;;;;;;;0.82;0.57;;;14.70;51.70;;;;;;5092040;28;19904;-57
2021/03/07 07:47:56;;;;;;;1.80;0.95;;;14.70;51.60;;;;;;5092267;28;20032;-57
2021/03/07 07:50:31;;;;;;;0.90;0.65;;;14.60;51.60;;;;;;5073576;28;20043;-58
2021/03/07 07:53:03;;;;;;;2.53;0.70;;;14.80;71.90;;;;;;5091892;28;20028;-58
2021/03/07 07:55:49;;;;;;;1.58;0.60;;;14.60;51.90;;;;;;5092107;28;20036;-58
2021/03/07 07:58:38;;;;;;;1.63;0.75;;;14.50;51.80;;;;;;5091732;28;20055;-57
2021/03/07 08:01:09;;;;;;;1.10;0.55;;;14.50;52.00;;;;;;5076832;28;20051;-57
2021/03/07 08:03:38;;;;;;;2.33;0.80;;;14.50;52.10;;;;;;5092197;28;20021;-57
2021/03/07 08:06:09;;;;;;;1.23;0.60;;;14.50;52.20;;;;;;5091933;28;20024;-57
2021/03/07 08:08:40;;;;;;;0.65;0.60;;;14.50;52.30;;;;;;5091788;28;20073;-57
2021/03/07 08:11:07;;;;;;;2.65;0.70;;;14.50;52.30;;;;;;5073547;28;20020;-57
2021/03/07 08:13:33;;;;;;;1.13;0.80;;;14.50;52.20;;;;;;5091525;28;20497;-57
2021/03/07 08:16:03;;;;;;;1.75;0.98;;;14.50;52.10;;;;;;5091637;28;20035;-57
2021/03/07 08:18:57;;;;;;;2.35;0.65;;;14.40;52.10;;;;;;5091730;28;20529;-57
2021/03/07 08:21:24;;;;;;;2.00;0.90;;;14.50;52.10;;;;;;5092038;28;20039;-55
2021/03/07 08:24:13;;;;;;;1.27;0.60;;;14.50;52.10;;;;;;5092236;28;20055;-57
2021/03/07 08:26:45;;;;;;;1.45;0.80;;;14.50;52.00;;;;;;5073649;28;20635;-56
2021/03/07 08:29:43;;;;;;;3.10;1.10;;;14.60;51.90;;;;;;5091961;28;20024;-57
2021/03/07 08:32:45;;;;;;;3.13;0.85;;;14.70;51.90;;;;;;5091523;28;20028;-57
2021/03/07 08:35:24;;;;;;;1.08;0.70;;;14.80;51.70;;;;;;5091954;28;20032;-56
2021/03/07 08:38:16;;;;;;;1.77;1.15;;;14.80;51.70;;;;;;5091806;28;20030;-55
2021/03/07 08:40:43;;;;;;;0.90;0.70;;;14.90;51.60;;;;;;5091829;28;20382;-56
2021/03/07 08:43:21;;;;;;;3.03;0.85;;;15.00;52.10;;;;;;5091637;28;20031;-56
2021/03/07 08:46:22;;;;;;;6.28;0.68;;;15.10;51.30;;;;;;5091353;28;20118;-57
2021/03/07 08:49:09;;;;;;;8.40;1.00;;;15.10;51.20;;;;;;5091446;28;20044;-58
2021/03/07 08:51:36;;;;;;;4.35;0.98;;;15.10;51.10;;;;;;5093604;28;20036;-54
2021/03/07 08:54:07;;;;;;;2.20;1.13;;;15.00;51.00;;;;;;5095202;28;20382;-56
2021/03/07 08:56:34;;;;;;;1.98;1.00;;;15.00;50.70;;;;;;5095208;28;20074;-55
2021/03/07 08:59:00;;;;;;;2.25;0.65;;;15.00;50.30;;;;;;5095110;28;20427;-55
2021/03/07 09:01:26;;;;;;;2.92;0.85;;;14.90;70.90;;;;;;5095267;28;20055;-55
2021/03/07 09:03:56;;;;;;;1.83;0.93;;;14.90;50.30;;;;;;5095023;28;20020;-57
2021/03/07 09:06:27;;;;;;;1.67;0.93;;;15.00;50.40;;;;;;5094805;28;20467;-55
2021/03/07 09:09:21;;;;;;;2.67;0.73;;;15.50;50.60;;;;;;5095105;28;20032;-56
2021/03/07 09:11:56;;;;;;;4.20;1.00;;;15.60;69.40;;;;;;5093907;28;20028;-57
2021/03/07 09:14:33;;;;;;;4.45;1.00;;;15.80;50.10;;;;;;5094785;28;20032;-58
2021/03/07 09:17:00;;;;;;;3.03;0.80;;;16.00;49.80;;;;;;5094793;28;20016;-57
2021/03/07 09:19:32;;;;;;;0.70;0.60;;;16.20;49.70;;;;;;5094668;28;20500;-59
2021/03/07 09:22:19;;;;;;;1.42;0.70;;;16.20;49.70;;;;;;5094645;28;20028;-56
2021/03/07 09:24:55;;;;;;;17.23;0.90;;;16.40;49.70;;;;;;5095658;27;20518;-57
2021/03/07 09:27:22;;;;;;;3.22;1.05;;;16.60;49.50;;;;;;5094678;28;20536;-57
2021/03/07 09:29:52;;;;;;;4.05;0.90;;;16.60;49.60;;;;;;5076426;28;20020;-56
2021/03/07 09:32:44;;;;;;;2.60;0.60;;;16.60;49.80;;;;;;5094586;28;20031;-57
2021/03/07 09:35:28;;;;;;;2.42;0.50;;;16.60;49.80;;;;;;5089863;28;20040;-58
2021/03/07 09:37:56;;;;;;;3.08;0.55;;;16.70;49.90;;;;;;5094456;28;20115;-57
2021/03/07 09:40:22;;;;;;;3.78;0.77;;;16.70;49.90;;;;;;5094146;28;20074;-57
2021/03/07 09:42:56;;;;;;;2.85;0.57;;;16.60;50.10;;;;;;5093841;28;20025;-57
2021/03/07 09:45:22;;;;;;;4.07;0.75;;;16.50;50.30;;;;;;5094084;28;20032;-58
2021/03/07 09:47:49;;;;;;;1.13;0.60;;;16.60;50.30;;;;;;5094465;28;20019;-56
2021/03/07 09:50:16;;;;;;;1.63;0.60;;;16.60;50.10;;;;;;5075992;28;20020;-57
2021/03/07 09:52:44;;;;;;;1.65;0.68;;;16.70;50.10;;;;;;5094342;28;20480;-58
2021/03/07 09:55:29;;;;;;;1.25;0.60;;;16.70;50.20;;;;;;5093917;28;20032;-57
2021/03/07 09:58:13;;;;;;;2.72;0.70;;;16.80;50.20;;;;;;5093963;28;20230;-56
2021/03/07 10:00:46;;;;;;;2.25;0.55;;;16.80;50.00;;;;;;5093678;28;20024;-57
2021/03/07 10:03:22;;;;;;;0.50;0.47;;;16.90;49.90;;;;;;5092574;28;20501;-56
2021/03/07 10:06:07;;;;;;;2.05;0.60;;;16.90;50.00;;;;;;5094004;28;20032;-59
2021/03/07 10:08:34;;;;;;;0.95;0.57;;;16.90;50.00;;;;;;5093891;28;20167;-57
2021/03/07 10:11:11;;;;;;;0.98;0.47;;;17.00;49.90;;;;;;5093754;28;20070;-56
2021/03/07 10:13:37;;;;;;;1.45;0.50;;;17.00;50.00;;;;;;5093623;28;20089;-53
2021/03/07 10:16:05;;;;;;;2.78;0.43;;;17.00;50.10;;;;;;5093828;28;20063;-55
2021/03/07 10:18:31;;;;;;;1.27;0.52;;;17.00;50.00;;;;;;5093532;28;20489;-54
2021/03/07 10:20:57;;;;;;;2.45;0.63;;;17.10;50.00;;;;;;5093548;28;20032;-55
2021/03/07 10:23:32;;;;;;;2.05;0.55;;;17.00;49.90;;;;;;5093795;28;20040;-58
2021/03/07 10:25:58;;;;;;;0.55;0.55;;;17.00;50.00;;;;;;5093693;28;20031;-54
2021/03/07 10:28:33;;;;;;;2.80;0.77;;;17.10;50.10;;;;;;5093325;28;20020;-55
2021/03/07 10:31:13;;;;;;;2.42;0.63;;;17.10;49.90;;;;;;5093146;28;20028;-57
2021/03/07 10:33:40;;;;;;;1.48;0.50;;;17.10;50.00;;;;;;5093077;28;20083;-54
2021/03/07 10:36:08;;;;;;;2.03;0.80;;;17.10;50.10;;;;;;5093427;28;20027;-55
2021/03/07 10:38:35;;;;;;;4.22;0.40;;;17.10;49.90;;;;;;5093551;28;20051;-55
2021/03/07 10:41:27;;;;;;;1.85;0.65;;;17.20;49.90;;;;;;5093100;28;20031;-55
2021/03/07 10:43:56;;;;;;;0.70;0.50;;;17.20;49.90;;;;;;5093123;28;20116;-55
2021/03/07 10:46:39;;;;;;;1.40;0.50;;;17.20;50.00;;;;;;5093373;28;20016;-55
2021/03/07 10:49:10;;;;;;;1.25;0.50;;;17.20;49.90;;;;;;5074722;28;20024;-55
2021/03/07 10:51:36;;;;;;;2.05;0.30;;;17.20;49.90;;;;;;5093384;28;20043;-62
2021/03/07 10:54:04;;;;;;;1.30;0.45;;;17.10;49.90;;;;;;5092906;28;20050;-55
2021/03/07 10:56:43;;;;;;;1.00;0.45;;;17.10;49.80;;;;;;5092794;28;20470;-59
2021/03/07 10:59:10;;;;;;;3.13;0.50;;;17.10;49.70;;;;;;5092925;28;20032;-54
2021/03/07 11:01:36;;;;;;;0.52;0.40;;;16.90;49.60;;;;;;5092846;28;20024;-53
2021/03/07 11:04:02;;;;;;;1.52;0.40;;;17.10;49.80;;;;;;5092917;28;20024;-53
2021/03/07 11:06:27;;;;;;;1.17;0.60;;;17.00;50.20;;;;;;5092671;28;20016;-54
2021/03/07 11:08:53;;;;;;;1.30;0.90;;;17.00;50.60;;;;;;5092919;28;20032;-54
2021/03/07 11:11:19;;;;;;;1.52;0.80;;;17.00;50.60;;;;;;5092583;28;20027;-53
2021/03/07 11:13:45;;;;;;;1.48;0.60;;;16.80;50.60;;;;;;5092060;28;20028;-55
2021/03/07 11:16:11;;;;;;;2.38;0.75;;;17.00;50.80;;;;;;5092575;28;20371;-55
2021/03/07 11:18:37;;;;;;;2.20;0.80;;;17.00;50.90;;;;;;5092774;28;20070;-53
2021/03/07 11:21:04;;;;;;;1.10;0.52;;;17.00;50.90;;;;;;5092646;28;20024;-53
2021/03/07 11:23:30;;;;;;;2.55;0.55;;;17.00;51.00;;;;;;5093297;27;20040;-55
2021/03/07 11:25:55;;;;;;;1.60;0.50;;;17.00;50.80;;;;;;5092616;28;20024;-55
2021/03/07 11:28:28;;;;;;;0.88;0.63;;;17.00;70.40;;;;;;5092436;28;20051;-56
2021/03/07 11:30:53;;;;;;;3.65;0.70;;;17.10;51.60;;;;;;5092150;28;20111;-55
2021/03/07 11:33:19;;;;;;;1.77;0.60;;;17.00;50.80;;;;;;5092296;28;20525;-56
2021/03/07 11:35:45;;;;;;;2.13;0.60;;;17.00;50.80;;;;;;5092538;28;20055;-56
2021/03/07 11:38:12;;;;;;;1.02;0.68;;;17.00;50.70;;;;;;5092400;28;20035;-55
2021/03/07 11:40:38;;;;;;;2.35;0.50;;;17.00;50.70;;;;;;5074100;28;20028;-57
2021/03/07 11:43:04;;;;;;;1.38;0.75;;;17.00;50.70;;;;;;5092044;28;20063;-55
2021/03/07 11:45:30;;;;;;;0.70;0.40;;;17.00;50.70;;;;;;5092052;28;20024;-55
2021/03/07 11:47:55;;;;;;;1.08;0.50;;;17.00;50.60;;;;;;5091966;28;20516;-58
2021/03/07 11:50:21;;;;;;;3.40;0.63;;;17.00;50.40;;;;;;5091922;28;20024;-55
2021/03/07 11:52:47;;;;;;;1.20;0.50;;;17.00;50.20;;;;;;5092120;28;20048;-55
2021/03/07 11:55:12;;;;;;;2.38;0.50;;;16.90;50.10;;;;;;5091829;28;20177;-56
2021/03/07 11:57:38;;;;;;;1.20;0.52;;;16.90;50.00;;;;;;5092082;28;20034;-55
2021/03/07 12:00:06;;;;;;;0.95;0.60;;;16.90;50.00;;;;;;5091874;28;20028;-54
2021/03/07 12:02:32;;;;;;;2.75;0.40;;;16.90;50.00;;;;;;5073979;28;20052;-56
2021/03/07 12:04:57;;;;;;;3.60;0.60;;;16.90;49.90;;;;;;5091987;28;20043;-55
2021/03/07 12:07:23;;;;;;;0.65;0.38;;;16.80;49.80;;;;;;5092003;28;20075;-55
2021/03/07 12:09:49;;;;;;;8.13;0.75;;;16.80;49.80;;;;;;5091057;28;20026;-56
2021/03/07 12:12:14;;;;;;;2.85;0.43;;;16.80;49.80;;;;;;5091894;28;20016;-55
2021/03/07 12:14:41;;;;;;;2.28;0.60;;;16.70;49.80;;;;;;5091918;28;20055;-56
2021/03/07 12:17:07;;;;;;;2.45;0.68;;;16.70;49.90;;;;;;5092129;28;20406;-56
2021/03/07 12:19:32;;;;;;;2.45;0.52;;;16.60;49.80;;;;;;5091818;28;20028;-56
2021/03/07 12:21:58;;;;;;;2.55;0.60;;;16.60;49.90;;;;;;5091491;28;20028;-57
2021/03/07 12:24:24;;;;;;;1.05;0.40;;;16.60;49.90;;;;;;5092242;27;20494;-55
2021/03/07 12:26:49;;;;;;;0.68;0.47;;;16.50;49.90;;;;;;5095279;28;20556;-56
2021/03/07 12:29:15;;;;;;;1.55;0.45;;;16.50;49.80;;;;;;5095962;28;20023;-56
2021/03/07 12:31:40;;;;;;;1.70;0.60;;;16.50;49.80;;;;;;5095909;28;20053;-55
2021/03/07 12:34:06;;;;;;;2.10;0.40;;;16.50;49.80;;;;;;5095529;28;20088;-56
2021/03/07 12:36:31;;;;;;;1.33;0.40;;;16.50;49.80;;;;;;5077482;28;20023;-55
2021/03/07 12:38:58;;;;;;;1.02;0.40;;;16.40;49.70;;;;;;5095660;28;20039;-55
2021/03/07 12:41:23;;;;;;;1.23;0.45;;;16.40;49.70;;;;;;5095176;28;20031;-57
2021/03/07 12:43:49;;;;;;;0.52;0.45;;;16.40;49.60;;;;;;5095468;28;20374;-57
2021/03/07 12:46:14;;;;;;;0.65;0.40;;;16.40;49.60;;;;;;5095574;28;20059;-55
2021/03/07 12:48:40;;;;;;;1.27;0.63;;;16.40;49.50;;;;;;5095225;28;20028;-54
2021/03/07 12:51:06;;;;;;;0.40;0.38;;;16.20;49.40;;;;;;5095107;28;20070;-54
2021/03/07 12:53:32;;;;;;;0.70;0.60;;;16.30;49.40;;;;;;5095045;28;20478;-52
2021/03/07 12:55:57;;;;;;;0.50;0.40;;;16.30;49.00;;;;;;5095276;28;20509;-57
2021/03/07 12:58:23;;;;;;;3.17;0.65;;;16.30;48.50;;;;;;5094955;28;20028;-56